createdAt,value
2023-01-13T00:01:21.025Z,35.94
2023-01-13T00:03:49.159Z,36.46
2023-01-13T00:06:18.076Z,36.11
2023-01-13T00:08:49.325Z,36.48
2023-01-13T00:11:17.406Z,36.16
2023-01-13T00:13:45.422Z,36.04
2023-01-13T00:16:15.627Z,36.63
2023-01-13T00:18:43.888Z,36.67
2023-01-13T00:21:13.457Z,36.68
2023-01-13T00:23:41.506Z,36.81
2023-01-13T00:26:11.858Z,36.18
2023-01-13T00:28:39.978Z,36.74
2023-01-13T00:31:08.674Z,36.30
2023-01-13T00:33:36.990Z,36.28
2023-01-13T00:36:05.939Z,36.84
2023-01-13T00:38:34.702Z,36.53
2023-01-13T00:41:03.695Z,36.42
2023-01-13T00:43:32.693Z,36.22
2023-01-13T00:46:00.893Z,36.25
2023-01-13T00:48:29.063Z,36.24
2023-01-13T00:50:57.386Z,36.48
2023-01-13T00:53:25.856Z,36.80
2023-01-13T00:56:00.868Z,36.53
2023-01-13T00:58:29.234Z,36.39
2023-01-13T01:01:00.749Z,36.41
2023-01-13T01:03:29.297Z,35.94
2023-01-13T01:05:57.465Z,36.87
2023-01-13T01:08:25.498Z,36.44
2023-01-13T01:11:02.178Z,36.04
2023-01-13T01:13:30.292Z,36.09
2023-01-13T01:15:59.759Z,36.17
2023-01-13T01:18:27.876Z,36.16
2023-01-13T01:20:55.914Z,36.57
2023-01-13T01:23:24.244Z,36.07
2023-01-13T01:25:52.261Z,36.26
2023-01-13T01:28:20.706Z,36.49
2023-01-13T01:30:48.737Z,36.17
2023-01-13T01:33:18.236Z,35.85
2023-01-13T01:35:46.273Z,35.90
2023-01-13T01:38:14.371Z,36.20
2023-01-13T01:40:42.400Z,36.58
2023-01-13T01:43:31.665Z,36.00
2023-01-13T01:45:59.739Z,36.15
2023-01-13T01:48:29.160Z,36.18
2023-01-13T01:50:57.263Z,36.54
2023-01-13T01:53:26.310Z,36.86
2023-01-13T01:55:54.394Z,35.98
2023-01-13T01:58:23.369Z,35.81
2023-01-13T02:00:51.597Z,36.36
2023-01-13T02:03:19.683Z,35.98
2023-01-13T02:05:49.156Z,35.98
2023-01-13T02:08:17.291Z,36.57
2023-01-13T02:10:46.450Z,36.62
2023-01-13T02:13:14.545Z,36.56
2023-01-13T02:15:45.161Z,35.99
2023-01-13T02:18:26.253Z,36.72
2023-01-13T02:21:09.098Z,36.66
2023-01-13T02:24:37.889Z,36.12
2023-01-13T02:27:32.464Z,36.07
2023-01-13T02:30:34.787Z,36.20
2023-01-13T02:33:32.771Z,36.01
2023-01-13T02:36:02.736Z,36.42
2023-01-13T02:38:32.474Z,36.67
2023-01-13T02:41:22.006Z,36.23
2023-01-13T02:44:07.948Z,36.73
2023-01-13T02:46:40.551Z,36.14
2023-01-13T02:49:09.964Z,36.77
2023-01-13T02:51:38.089Z,36.73
2023-01-13T02:54:07.854Z,36.18
2023-01-13T02:56:38.589Z,36.54
2023-01-13T02:59:06.729Z,36.09
2023-01-13T03:01:34.954Z,36.03
2023-01-13T03:04:14.049Z,36.24
2023-01-13T03:06:47.787Z,36.33
2023-01-13T03:09:17.811Z,36.72
2023-01-13T03:11:52.183Z,36.28
2023-01-13T03:14:26.063Z,36.36
2023-01-13T03:17:00.797Z,36.62
2023-01-13T03:19:35.712Z,36.23
2023-01-13T03:22:09.634Z,36.61
2023-01-13T03:24:38.953Z,36.54
2023-01-13T03:27:08.107Z,36.51
2023-01-13T03:29:38.014Z,36.53
2023-01-13T03:32:08.348Z,36.38
2023-01-13T03:34:39.676Z,36.25
2023-01-13T03:37:08.546Z,36.01
2023-01-13T03:39:37.532Z,36.01
2023-01-13T03:42:06.891Z,36.11
2023-01-13T03:44:34.982Z,35.90
2023-01-13T03:47:07.668Z,36.09
2023-01-13T03:49:38.968Z,36.52
2023-01-13T03:52:08.677Z,36.49
2023-01-13T03:54:38.967Z,36.08
2023-01-13T03:57:09.949Z,36.49
2023-01-13T03:59:40.040Z,35.91
2023-01-13T04:02:09.471Z,36.61
2023-01-13T04:04:40.676Z,36.42
2023-01-13T04:07:13.606Z,36.31
2023-01-13T04:09:45.713Z,36.67
2023-01-13T04:12:15.702Z,36.53
2023-01-13T04:14:43.858Z,36.75
2023-01-13T04:17:11.929Z,36.69
2023-01-13T04:19:41.382Z,36.07
2023-01-13T04:22:09.451Z,36.38
2023-01-13T04:24:38.237Z,36.59
2023-01-13T04:27:06.293Z,36.22
2023-01-13T04:29:34.428Z,36.30
2023-01-13T04:32:02.487Z,36.11
2023-01-13T04:34:30.620Z,36.45
2023-01-13T04:37:00.019Z,36.06
2023-01-13T04:39:28.206Z,36.72
2023-01-13T04:41:59.139Z,36.52
2023-01-13T04:44:27.555Z,36.81
2023-01-13T04:46:55.645Z,35.92
2023-01-13T04:49:23.716Z,35.70
2023-01-13T04:51:51.779Z,36.23
2023-01-13T04:54:21.265Z,35.87
2023-01-13T04:56:49.416Z,36.00
2023-01-13T04:59:17.471Z,36.10
2023-01-13T05:01:45.807Z,36.53
2023-01-13T05:04:15.540Z,36.15
2023-01-13T05:06:43.639Z,36.72
2023-01-13T05:09:13.395Z,35.99
2023-01-13T05:12:00.207Z,36.78
2023-01-13T05:14:45.528Z,35.97
2023-01-13T05:17:15.707Z,36.43
2023-01-13T05:19:43.831Z,36.30
2023-01-13T05:22:29.491Z,35.86
2023-01-13T05:25:26.262Z,36.62
2023-01-13T05:27:56.346Z,36.23
2023-01-13T05:30:25.654Z,36.67
2023-01-13T05:32:53.776Z,36.05
2023-01-13T05:35:21.883Z,35.94
2023-01-13T05:37:49.959Z,36.21
2023-01-13T05:40:36.221Z,36.29
2023-01-13T05:43:22.147Z,36.03
2023-01-13T05:45:51.217Z,36.69
2023-01-13T05:48:19.701Z,36.37
2023-01-13T05:50:49.280Z,36.17
2023-01-13T05:53:17.739Z,36.75
2023-01-13T05:55:45.867Z,36.59
2023-01-13T05:58:15.915Z,36.10
2023-01-13T06:00:44.025Z,35.96
2023-01-13T06:03:12.206Z,36.50
2023-01-13T06:05:40.402Z,36.36
2023-01-13T06:08:08.691Z,35.90
2023-01-13T06:10:36.903Z,36.34
2023-01-13T06:13:05.000Z,36.60
2023-01-13T06:15:34.496Z,35.96
2023-01-13T06:18:03.874Z,36.56
2023-01-13T06:20:32.025Z,36.68
2023-01-13T06:23:00.147Z,36.50
2023-01-13T06:25:33.508Z,35.96
2023-01-13T06:28:01.654Z,35.83
2023-01-13T06:30:30.877Z,36.36
2023-01-13T06:33:00.550Z,36.60
2023-01-13T06:35:30.830Z,36.45
2023-01-13T06:37:59.410Z,36.53
2023-01-13T06:40:27.500Z,36.36
2023-01-13T06:43:15.800Z,36.46
2023-01-13T06:45:50.795Z,35.94
2023-01-13T06:48:21.349Z,35.96
2023-01-13T06:50:49.494Z,35.75
2023-01-13T06:53:17.552Z,36.07
2023-01-13T06:55:45.674Z,36.19
2023-01-13T06:58:13.922Z,36.24
2023-01-13T07:00:42.088Z,35.81
2023-01-13T07:03:11.035Z,36.05
2023-01-13T07:05:40.853Z,35.73
2023-01-13T07:08:09.001Z,36.27
2023-01-13T07:10:37.219Z,35.89
2023-01-13T07:13:22.948Z,35.71
2023-01-13T07:15:57.571Z,35.67
2023-01-13T07:18:27.495Z,36.12
2023-01-13T07:20:58.569Z,36.21
2023-01-13T07:23:26.691Z,35.56
2023-01-13T07:25:56.372Z,36.13
2023-01-13T07:28:24.581Z,36.24
2023-01-13T07:30:52.789Z,36.07
2023-01-13T07:33:20.950Z,35.98
2023-01-13T07:35:50.514Z,36.33
2023-01-13T07:38:20.010Z,36.04
2023-01-13T07:40:48.062Z,36.22
2023-01-13T07:43:33.060Z,36.36
2023-01-13T07:46:01.706Z,36.05
2023-01-13T07:48:29.893Z,36.21
2023-01-13T07:50:58.011Z,36.52
2023-01-13T07:53:27.453Z,36.38
2023-01-13T07:55:56.928Z,35.69
2023-01-13T07:58:24.984Z,35.88
2023-01-13T08:00:53.250Z,35.73
2023-01-13T08:03:21.423Z,35.73
2023-01-13T08:05:49.775Z,36.42
2023-01-13T08:08:18.037Z,35.70
2023-01-13T08:10:47.450Z,36.07
2023-01-13T08:13:20.166Z,36.00
2023-01-13T08:15:49.812Z,36.26
2023-01-13T08:18:20.896Z,35.75
2023-01-13T08:20:49.773Z,36.19
2023-01-13T08:23:17.901Z,36.34
2023-01-13T08:25:47.424Z,35.77
2023-01-13T08:28:16.058Z,36.01
2023-01-13T08:30:44.238Z,35.56
2023-01-13T08:33:12.890Z,36.28
2023-01-13T08:35:41.610Z,36.04
2023-01-13T08:38:10.065Z,36.11
2023-01-13T08:40:38.195Z,35.73
2023-01-13T08:43:07.708Z,36.21
2023-01-13T08:45:36.147Z,36.38
2023-01-13T08:48:04.346Z,36.30
2023-01-13T08:50:32.392Z,36.46
2023-01-13T08:53:00.970Z,36.50
2023-01-13T08:55:29.012Z,36.56
2023-01-13T08:58:14.042Z,36.04
2023-01-13T09:00:45.228Z,36.34
2023-01-13T09:03:13.385Z,36.66
2023-01-13T09:05:41.533Z,36.34
2023-01-13T09:08:09.688Z,36.80
2023-01-13T09:10:40.452Z,36.54
2023-01-13T09:13:12.055Z,36.16
2023-01-13T09:15:41.114Z,36.51
2023-01-13T09:18:10.606Z,36.16
2023-01-13T09:20:38.765Z,36.84
2023-01-13T09:23:09.859Z,36.25
2023-01-13T09:25:38.522Z,36.75
2023-01-13T09:28:08.511Z,36.91
2023-01-13T09:30:37.632Z,36.43
2023-01-13T09:33:23.055Z,36.41
2023-01-13T09:35:52.633Z,37.02
2023-01-13T09:38:20.781Z,36.54
2023-01-13T09:40:49.342Z,36.90
2023-01-13T09:43:36.994Z,36.29
2023-01-13T09:46:06.557Z,36.93
2023-01-13T09:48:51.870Z,37.13
2023-01-13T09:51:24.807Z,36.50
2023-01-13T09:53:55.869Z,36.46
2023-01-13T09:56:24.154Z,36.61
2023-01-13T09:58:52.211Z,36.51
2023-01-13T10:01:22.765Z,37.05
2023-01-13T10:03:50.976Z,36.97
2023-01-13T10:06:21.122Z,36.64
2023-01-13T10:08:50.642Z,37.06
2023-01-13T10:11:37.241Z,37.36
2023-01-13T10:14:11.777Z,37.23
2023-01-13T10:16:43.026Z,37.49
2023-01-13T10:19:17.392Z,37.44
2023-01-13T10:22:23.665Z,37.76
2023-01-13T10:25:10.006Z,37.89
2023-01-13T10:27:38.982Z,37.67
2023-01-13T10:30:21.032Z,37.43
2023-01-13T10:32:51.054Z,37.14
2023-01-13T10:35:19.184Z,37.15
2023-01-13T10:37:57.491Z,37.82
2023-01-13T10:40:26.933Z,37.81
2023-01-13T10:43:06.965Z,37.00
2023-01-13T10:45:35.133Z,37.62
2023-01-13T10:48:07.908Z,37.32
2023-01-13T10:50:36.363Z,37.58
2023-01-13T10:53:17.057Z,37.01
2023-01-13T10:56:01.976Z,37.52
2023-01-13T10:58:30.157Z,37.65
2023-01-13T11:01:02.939Z,37.02
2023-01-13T11:03:36.997Z,37.42
2023-01-13T11:06:05.387Z,37.22
2023-01-13T11:08:43.003Z,37.66
2023-01-13T11:11:27.058Z,37.50
2023-01-13T11:14:12.632Z,37.50
2023-01-13T11:16:52.689Z,36.94
2023-01-13T11:19:22.009Z,36.90
2023-01-13T11:21:53.376Z,37.07
2023-01-13T11:24:23.139Z,37.62
2023-01-13T11:26:56.879Z,37.29
2023-01-13T11:29:27.440Z,37.49
2023-01-13T11:31:56.888Z,36.92
2023-01-13T11:34:28.668Z,37.28
2023-01-13T11:36:58.093Z,37.33
2023-01-13T11:39:27.742Z,37.69
2023-01-13T11:42:12.546Z,37.49
2023-01-13T11:44:42.392Z,39.80
2023-01-13T11:47:10.702Z,37.70
2023-01-13T11:49:38.799Z,38.01
2023-01-13T11:52:12.391Z,37.43
2023-01-13T11:54:56.568Z,37.64
2023-01-13T11:57:36.033Z,38.34
2023-01-13T12:00:22.362Z,37.61
2023-01-13T12:02:54.870Z,38.05
2023-01-13T12:05:27.708Z,37.88
2023-01-13T12:08:00.203Z,38.33
2023-01-13T12:10:38.908Z,37.81
2023-01-13T12:13:16.384Z,37.45
2023-01-13T12:15:58.169Z,37.80
2023-01-13T12:18:56.955Z,37.53
2023-01-13T12:21:26.188Z,38.11
2023-01-13T12:24:01.956Z,38.03
2023-01-13T12:26:31.099Z,37.85
2023-01-13T12:29:02.061Z,37.41
2023-01-13T12:31:30.257Z,37.94
2023-01-13T12:34:06.569Z,38.09
2023-01-13T12:36:38.878Z,37.42
2023-01-13T12:39:18.164Z,38.06
2023-01-13T12:42:01.929Z,38.08
2023-01-13T12:44:31.504Z,37.33
2023-01-13T12:47:00.066Z,37.45
2023-01-13T12:49:29.935Z,37.71
2023-01-13T12:52:24.818Z,37.90
2023-01-13T12:55:09.995Z,37.91
2023-01-13T12:57:39.535Z,37.50
2023-01-13T13:00:17.089Z,37.91
2023-01-13T13:02:45.444Z,37.45
2023-01-13T13:05:38.645Z,37.29
2023-01-13T13:08:11.372Z,38.26
2023-01-13T13:10:40.504Z,38.23
2023-01-13T13:13:19.612Z,37.51
2023-01-13T13:15:49.393Z,37.69
2023-01-13T13:18:27.228Z,37.74
2023-01-13T13:21:04.632Z,37.96
2023-01-13T13:23:48.290Z,38.27
2023-01-13T13:26:32.865Z,37.65
2023-01-13T13:29:31.800Z,37.79
2023-01-13T13:32:35.541Z,37.64
2023-01-13T13:35:15.580Z,37.99
2023-01-13T13:38:07.350Z,38.19
2023-01-13T13:40:58.055Z,39.07
2023-01-13T13:43:43.531Z,39.05
2023-01-13T13:46:41.879Z,39.80
2023-01-13T13:49:11.980Z,39.88
2023-01-13T13:51:42.569Z,39.86
2023-01-13T13:54:11.825Z,40.15
2023-01-13T13:56:41.860Z,40.55
2023-01-13T13:59:11.188Z,40.60
2023-01-13T14:01:40.141Z,40.53
2023-01-13T14:04:12.437Z,40.42
2023-01-13T14:06:52.903Z,40.71
2023-01-13T14:09:21.132Z,40.80
2023-01-13T14:11:59.987Z,40.86
2023-01-13T14:14:28.095Z,40.10
2023-01-13T14:16:56.271Z,40.11
2023-01-13T14:19:32.130Z,40.43
2023-01-13T14:22:02.047Z,40.76
2023-01-13T14:24:30.578Z,40.24
2023-01-13T14:27:11.550Z,40.48
2023-01-13T14:29:39.685Z,40.90
2023-01-13T14:32:07.972Z,40.87
2023-01-13T14:34:37.840Z,40.20
2023-01-13T14:37:26.913Z,40.22
2023-01-13T14:39:55.427Z,40.56
2023-01-13T14:42:23.571Z,40.89
2023-01-13T14:44:51.948Z,40.27
2023-01-13T14:47:22.975Z,40.80
2023-01-13T14:50:03.253Z,40.55
2023-01-13T14:52:31.952Z,40.08
2023-01-13T14:55:23.134Z,40.25
2023-01-13T14:57:51.511Z,40.24
2023-01-13T15:00:22.229Z,39.98
2023-01-13T15:02:51.393Z,39.98
2023-01-13T15:05:42.779Z,40.35
2023-01-13T15:08:41.432Z,40.27
2023-01-13T15:11:15.963Z,39.90
2023-01-13T15:13:51.032Z,40.23
2023-01-13T15:16:22.908Z,40.38
2023-01-13T15:18:51.093Z,40.50
2023-01-13T15:21:20.821Z,41.11
2023-01-13T15:23:49.013Z,40.73
2023-01-13T15:26:19.919Z,40.72
2023-01-13T15:28:48.157Z,40.50
2023-01-13T15:31:16.400Z,40.76
2023-01-13T15:33:44.663Z,40.58
2023-01-13T15:36:21.915Z,40.64
2023-01-13T15:38:50.163Z,40.79
2023-01-13T15:41:38.361Z,40.13
2023-01-13T15:44:24.075Z,40.38
2023-01-13T15:46:52.260Z,40.47
2023-01-13T15:49:26.215Z,40.20
2023-01-13T15:51:55.767Z,40.77
2023-01-13T15:54:24.776Z,40.50
2023-01-13T15:56:53.141Z,40.32
2023-01-13T15:59:23.297Z,40.17
2023-01-13T16:01:51.690Z,40.18
2023-01-13T16:04:19.878Z,40.30
2023-01-13T16:06:48.500Z,40.53
2023-01-13T16:09:17.987Z,39.97
2023-01-13T16:11:46.374Z,40.01
2023-01-13T16:14:14.563Z,39.79
2023-01-13T16:16:43.039Z,40.12
2023-01-13T16:19:12.071Z,39.67
2023-01-13T16:21:40.659Z,39.65
2023-01-13T16:24:08.884Z,40.46
2023-01-13T16:26:39.024Z,39.79
2023-01-13T16:29:07.392Z,39.79
2023-01-13T16:31:36.116Z,40.46
2023-01-13T16:34:04.494Z,40.15
2023-01-13T16:36:34.765Z,39.96
2023-01-13T16:39:03.047Z,40.17
2023-01-13T16:41:31.220Z,39.70
2023-01-13T16:44:06.001Z,39.96
2023-01-13T16:46:34.298Z,40.29
2023-01-13T16:49:03.722Z,40.30
2023-01-13T16:51:31.933Z,39.58
2023-01-13T16:54:00.055Z,39.98
2023-01-13T16:56:28.888Z,40.13
2023-01-13T16:58:57.790Z,40.09
2023-01-13T17:01:28.217Z,38.56
2023-01-13T17:03:56.858Z,38.18
2023-01-13T17:06:26.194Z,38.64
2023-01-13T17:08:54.470Z,38.30
2023-01-13T17:11:22.738Z,38.53
2023-01-13T17:13:50.894Z,38.51
2023-01-13T17:16:20.548Z,38.80
2023-01-13T17:18:50.184Z,38.99
2023-01-13T17:21:18.422Z,39.00
2023-01-13T17:23:46.532Z,38.43
2023-01-13T17:26:32.357Z,38.71
2023-01-13T17:29:01.579Z,38.71
2023-01-13T17:31:29.991Z,38.71
2023-01-13T17:33:59.478Z,38.64
2023-01-13T17:36:27.693Z,38.91
2023-01-13T17:38:55.880Z,38.52
2023-01-13T17:41:24.078Z,38.27
2023-01-13T17:43:52.636Z,38.26
2023-01-13T17:46:20.882Z,38.42
2023-01-13T17:48:49.117Z,38.60
2023-01-13T17:51:18.957Z,38.72
2023-01-13T17:53:47.184Z,38.80
2023-01-13T17:56:15.931Z,38.42
2023-01-13T17:58:45.452Z,38.86
2023-01-13T18:01:15.193Z,38.21
2023-01-13T18:03:43.372Z,38.06
2023-01-13T18:06:14.423Z,38.75
2023-01-13T18:08:43.972Z,38.41
2023-01-13T18:11:12.106Z,38.30
2023-01-13T18:13:41.231Z,38.12
2023-01-13T18:16:10.797Z,38.48
2023-01-13T18:18:38.950Z,38.36
2023-01-13T18:21:24.731Z,38.02
2023-01-13T18:24:12.047Z,38.15
2023-01-13T18:26:57.304Z,38.27
2023-01-13T18:29:25.621Z,38.30
2023-01-13T18:31:53.673Z,38.02
2023-01-13T18:34:21.864Z,38.16
2023-01-13T18:36:49.962Z,38.09
2023-01-13T18:39:19.503Z,38.19
2023-01-13T18:42:04.763Z,38.07
2023-01-13T18:44:32.925Z,38.38
2023-01-13T18:47:01.058Z,38.30
2023-01-13T18:49:29.163Z,38.58
2023-01-13T18:51:57.386Z,38.78
2023-01-13T18:54:26.880Z,38.19
2023-01-13T18:56:55.063Z,38.57
2023-01-13T18:59:23.141Z,38.02
2023-01-13T19:01:51.803Z,38.41
2023-01-13T19:04:19.980Z,38.77
2023-01-13T19:06:51.519Z,38.58
2023-01-13T19:09:20.577Z,38.17
2023-01-13T19:11:51.365Z,38.71
2023-01-13T19:14:33.317Z,38.54
2023-01-13T19:17:02.234Z,38.70
2023-01-13T19:19:30.333Z,38.86
2023-01-13T19:21:58.550Z,39.13
2023-01-13T19:24:27.113Z,39.34
2023-01-13T19:26:56.769Z,38.98
2023-01-13T19:29:24.917Z,39.28
2023-01-13T19:31:53.061Z,39.06
2023-01-13T19:34:22.902Z,39.17
2023-01-13T19:36:52.899Z,39.36
2023-01-13T19:39:21.036Z,39.14
2023-01-13T19:42:12.005Z,39.17
2023-01-13T19:44:59.148Z,39.38
2023-01-13T19:47:27.290Z,39.42
2023-01-13T19:49:55.343Z,39.96
2023-01-13T19:52:23.471Z,39.72
2023-01-13T19:54:51.955Z,39.87
2023-01-13T19:57:20.416Z,40.03
2023-01-13T19:59:49.945Z,39.63
2023-01-13T20:02:27.467Z,39.90
2023-01-13T20:04:56.147Z,39.68
2023-01-13T20:07:24.616Z,39.97
2023-01-13T20:09:53.119Z,39.74
2023-01-13T20:12:21.515Z,39.50
2023-01-13T20:14:51.096Z,39.61
2023-01-13T20:17:20.221Z,39.91
2023-01-13T20:19:48.491Z,39.44
2023-01-13T20:22:16.909Z,39.64
2023-01-13T20:24:44.967Z,39.77
2023-01-13T20:27:13.114Z,39.33
2023-01-13T20:29:41.276Z,39.37
2023-01-13T20:32:10.820Z,39.10
2023-01-13T20:34:38.975Z,39.20
2023-01-13T20:37:07.147Z,39.21
2023-01-13T20:39:36.073Z,39.39
2023-01-13T20:42:21.566Z,39.49
2023-01-13T20:44:49.729Z,39.59
2023-01-13T20:47:19.209Z,39.11
2023-01-13T20:49:47.409Z,39.73
2023-01-13T20:52:15.484Z,39.21
2023-01-13T20:54:43.686Z,39.35
2023-01-13T20:57:12.184Z,39.19
2023-01-13T20:59:40.475Z,39.17
2023-01-13T21:02:12.035Z,39.07
2023-01-13T21:04:41.617Z,38.92
2023-01-13T21:07:09.827Z,39.53
2023-01-13T21:09:37.947Z,38.80
2023-01-13T21:12:24.377Z,39.30
2023-01-13T21:15:09.749Z,39.53
2023-01-13T21:17:55.384Z,38.90
2023-01-13T21:20:24.920Z,38.88
2023-01-13T21:22:53.055Z,38.92
2023-01-13T21:25:21.296Z,39.31
2023-01-13T21:27:49.369Z,39.10
2023-01-13T21:30:18.139Z,39.05
2023-01-13T21:32:46.349Z,38.97
2023-01-13T21:35:15.061Z,38.80
2023-01-13T21:37:44.714Z,38.90
2023-01-13T21:40:14.230Z,38.95
2023-01-13T21:43:00.170Z,39.46
2023-01-13T21:45:45.729Z,38.87
2023-01-13T21:48:13.925Z,38.85
2023-01-13T21:50:42.267Z,39.07
2023-01-13T21:53:11.814Z,39.08
2023-01-13T21:55:39.937Z,38.72
2023-01-13T21:58:09.862Z,38.76
2023-01-13T22:00:38.116Z,38.57
2023-01-13T22:03:06.991Z,38.64
2023-01-13T22:05:35.169Z,38.76
2023-01-13T22:08:03.289Z,38.97
2023-01-13T22:10:32.769Z,39.00
2023-01-13T22:13:21.732Z,38.75
2023-01-13T22:15:49.869Z,39.06
2023-01-13T22:18:18.257Z,39.15
2023-01-13T22:20:46.521Z,38.69
2023-01-13T22:23:14.716Z,38.53
2023-01-13T22:25:44.231Z,39.18
2023-01-13T22:28:13.933Z,38.97
2023-01-13T22:30:42.556Z,38.85
2023-01-13T22:33:10.795Z,38.33
2023-01-13T22:35:38.970Z,38.67
2023-01-13T22:38:07.130Z,38.32
2023-01-13T22:40:35.236Z,38.27
2023-01-13T22:43:04.792Z,38.35
2023-01-13T22:45:32.995Z,38.74
2023-01-13T22:48:01.089Z,38.68
2023-01-13T22:50:29.321Z,38.50
2023-01-13T22:52:57.375Z,38.93
2023-01-13T22:55:25.529Z,39.08
2023-01-13T22:57:53.574Z,38.84
2023-01-13T23:00:25.025Z,38.73
2023-01-13T23:02:53.119Z,38.65
2023-01-13T23:05:21.190Z,39.07
2023-01-13T23:07:49.389Z,39.00
2023-01-13T23:10:18.134Z,38.29
2023-01-13T23:12:46.268Z,38.86
2023-01-13T23:15:14.482Z,38.90
2023-01-13T23:17:44.043Z,38.69
2023-01-13T23:20:12.802Z,38.78
2023-01-13T23:22:40.928Z,38.44
2023-01-13T23:25:09.850Z,39.00
2023-01-13T23:27:38.024Z,38.73
2023-01-13T23:30:07.017Z,38.42
2023-01-13T23:32:35.534Z,38.70
2023-01-13T23:35:05.382Z,38.63
2023-01-13T23:37:34.362Z,39.02
2023-01-13T23:40:02.454Z,38.71
2023-01-13T23:42:30.715Z,38.29
2023-01-13T23:44:58.816Z,38.38
2023-01-13T23:47:27.019Z,38.66
2023-01-13T23:49:55.105Z,38.26
2023-01-13T23:52:24.660Z,38.85
2023-01-13T23:54:52.747Z,38.77
2023-01-13T23:57:20.935Z,38.53
2023-01-13T23:59:49.013Z,38.75
